sensor_id;sensor_type;location;lat;lon;timestamp;temperature;humidity
60717;DHT22;46566;52.700;6.192;2022-11-20T00:01:13;-0.90;99.90
60717;DHT22;46566;52.700;6.192;2022-11-20T00:03:39;-0.90;99.90
60717;DHT22;46566;52.700;6.192;2022-11-20T00:06:07;-0.90;99.90
60717;DHT22;46566;52.700;6.192;2022-11-20T00:08:33;-0.90;99.90
60717;DHT22;46566;52.700;6.192;2022-11-20T00:11:06;-0.90;99.90
60717;DHT22;46566;52.700;6.192;2022-11-20T00:13:32;-0.90;99.90
60717;DHT22;46566;52.700;6.192;2022-11-20T00:16:00;-0.90;99.90
60717;DHT22;46566;52.700;6.192;2022-11-20T00:18:27;-0.90;99.90
60717;DHT22;46566;52.700;6.192;2022-11-20T00:20:53;-0.90;99.90
60717;DHT22;46566;52.700;6.192;2022-11-20T00:23:19;-0.90;99.90
60717;DHT22;46566;52.700;6.192;2022-11-20T00:25:45;-0.90;99.90
60717;DHT22;46566;52.700;6.192;2022-11-20T00:28:10;-0.90;99.90
60717;DHT22;46566;52.700;6.192;2022-11-20T00:30:36;-0.90;99.90
60717;DHT22;46566;52.700;6.192;2022-11-20T00:33:02;-0.90;99.90
60717;DHT22;46566;52.700;6.192;2022-11-20T00:35:28;-0.90;99.90
60717;DHT22;46566;52.700;6.192;2022-11-20T00:37:53;-1.00;99.90
60717;DHT22;46566;52.700;6.192;2022-11-20T00:40:19;-1.00;99.90
60717;DHT22;46566;52.700;6.192;2022-11-20T00:42:45;-1.00;99.90
60717;DHT22;46566;52.700;6.192;2022-11-20T00:45:10;-1.00;99.90
60717;DHT22;46566;52.700;6.192;2022-11-20T00:47:36;-1.00;99.90
60717;DHT22;46566;52.700;6.192;2022-11-20T00:50:02;-1.00;99.90
60717;DHT22;46566;52.700;6.192;2022-11-20T00:52:28;-1.00;99.90
60717;DHT22;46566;52.700;6.192;2022-11-20T00:54:53;-1.00;99.90
60717;DHT22;46566;52.700;6.192;2022-11-20T00:57:22;-1.10;99.90
60717;DHT22;46566;52.700;6.192;2022-11-20T00:59:48;-1.10;99.90
60717;DHT22;46566;52.700;6.192;2022-11-20T01:02:13;-1.10;99.90
60717;DHT22;46566;52.700;6.192;2022-11-20T01:04:42;-1.20;99.90
60717;DHT22;46566;52.700;6.192;2022-11-20T01:07:07;-1.20;99.90
60717;DHT22;46566;52.700;6.192;2022-11-20T01:09:33;-1.10;99.90
60717;DHT22;46566;52.700;6.192;2022-11-20T01:11:59;-1.10;99.90
60717;DHT22;46566;52.700;6.192;2022-11-20T01:14:25;-1.10;99.90
60717;DHT22;46566;52.700;6.192;2022-11-20T01:16:51;-1.10;99.90
60717;DHT22;46566;52.700;6.192;2022-11-20T01:19:19;-1.10;99.90
60717;DHT22;46566;52.700;6.192;2022-11-20T01:21:47;-1.10;99.90
60717;DHT22;46566;52.700;6.192;2022-11-20T01:24:15;-1.10;99.90
60717;DHT22;46566;52.700;6.192;2022-11-20T01:26:42;-1.10;99.90
60717;DHT22;46566;52.700;6.192;2022-11-20T01:29:14;-1.10;99.90
60717;DHT22;46566;52.700;6.192;2022-11-20T01:31:41;-1.20;99.90
60717;DHT22;46566;52.700;6.192;2022-11-20T01:34:10;-1.20;99.90
60717;DHT22;46566;52.700;6.192;2022-11-20T01:36:37;-1.20;99.90
60717;DHT22;46566;52.700;6.192;2022-11-20T01:39:06;-1.20;99.90
60717;DHT22;46566;52.700;6.192;2022-11-20T01:41:33;-1.20;99.90
60717;DHT22;46566;52.700;6.192;2022-11-20T01:44:20;-1.20;99.90
60717;DHT22;46566;52.700;6.192;2022-11-20T01:46:57;-1.30;99.90
60717;DHT22;46566;52.700;6.192;2022-11-20T01:52:05;-1.20;99.90
60717;DHT22;46566;52.700;6.192;2022-11-20T01:54:39;-1.20;99.90
60717;DHT22;46566;52.700;6.192;2022-11-20T01:57:08;-1.20;99.90
60717;DHT22;46566;52.700;6.192;2022-11-20T01:59:41;-1.20;99.90
60717;DHT22;46566;52.700;6.192;2022-11-20T02:02:08;-1.20;99.90
60717;DHT22;46566;52.700;6.192;2022-11-20T02:08:08;-1.20;99.90
60717;DHT22;46566;52.700;6.192;2022-11-20T02:10:34;-1.20;99.90
60717;DHT22;46566;52.700;6.192;2022-11-20T02:13:00;-1.30;99.90
60717;DHT22;46566;52.700;6.192;2022-11-20T02:15:47;-1.30;99.90
60717;DHT22;46566;52.700;6.192;2022-11-20T02:18:17;-1.30;99.90
60717;DHT22;46566;52.700;6.192;2022-11-20T02:20:46;-1.30;99.90
60717;DHT22;46566;52.700;6.192;2022-11-20T02:26:02;-1.30;99.90
60717;DHT22;46566;52.700;6.192;2022-11-20T02:28:30;-1.30;99.90
60717;DHT22;46566;52.700;6.192;2022-11-20T02:30:56;-1.30;99.90
60717;DHT22;46566;52.700;6.192;2022-11-20T02:33:27;-1.40;99.90
60717;DHT22;46566;52.700;6.192;2022-11-20T02:35:53;-1.40;99.90
60717;DHT22;46566;52.700;6.192;2022-11-20T02:38:21;-1.40;99.90
60717;DHT22;46566;52.700;6.192;2022-11-20T02:40:48;-1.40;99.90
60717;DHT22;46566;52.700;6.192;2022-11-20T02:43:15;-1.30;99.90
60717;DHT22;46566;52.700;6.192;2022-11-20T02:45:41;-1.30;99.90
60717;DHT22;46566;52.700;6.192;2022-11-20T02:48:07;-1.30;99.90
60717;DHT22;46566;52.700;6.192;2022-11-20T02:50:38;-1.40;99.90
60717;DHT22;46566;52.700;6.192;2022-11-20T02:53:05;-1.40;99.90
60717;DHT22;46566;52.700;6.192;2022-11-20T02:55:31;-1.40;99.90
60717;DHT22;46566;52.700;6.192;2022-11-20T02:57:59;-1.40;99.90
60717;DHT22;46566;52.700;6.192;2022-11-20T03:00:25;-1.40;99.90
60717;DHT22;46566;52.700;6.192;2022-11-20T03:02:51;-1.40;99.90
60717;DHT22;46566;52.700;6.192;2022-11-20T03:05:17;-1.40;99.90
60717;DHT22;46566;52.700;6.192;2022-11-20T03:07:43;-1.40;99.90
60717;DHT22;46566;52.700;6.192;2022-11-20T03:10:09;-1.40;99.90
60717;DHT22;46566;52.700;6.192;2022-11-20T03:12:35;-1.40;99.90
60717;DHT22;46566;52.700;6.192;2022-11-20T03:15:00;-1.40;99.90
60717;DHT22;46566;52.700;6.192;2022-11-20T03:17:26;-1.40;99.90
60717;DHT22;46566;52.700;6.192;2022-11-20T03:19:52;-1.40;99.90
60717;DHT22;46566;52.700;6.192;2022-11-20T03:22:17;-1.40;99.90
60717;DHT22;46566;52.700;6.192;2022-11-20T03:24:43;-1.50;99.90
60717;DHT22;46566;52.700;6.192;2022-11-20T03:27:09;-1.50;99.90
60717;DHT22;46566;52.700;6.192;2022-11-20T03:29:35;-1.50;99.90
60717;DHT22;46566;52.700;6.192;2022-11-20T03:32:01;-1.50;99.90
60717;DHT22;46566;52.700;6.192;2022-11-20T03:34:26;-1.50;99.90
60717;DHT22;46566;52.700;6.192;2022-11-20T03:36:52;-1.50;99.90
60717;DHT22;46566;52.700;6.192;2022-11-20T03:39:18;-1.50;99.90
60717;DHT22;46566;52.700;6.192;2022-11-20T03:41:43;-1.50;99.90
60717;DHT22;46566;52.700;6.192;2022-11-20T03:44:11;-1.50;99.90
60717;DHT22;46566;52.700;6.192;2022-11-20T03:46:38;-1.60;99.90
60717;DHT22;46566;52.700;6.192;2022-11-20T03:49:04;-1.70;99.90
60717;DHT22;46566;52.700;6.192;2022-11-20T03:51:31;-1.70;99.90
60717;DHT22;46566;52.700;6.192;2022-11-20T03:54:06;-1.70;99.90
60717;DHT22;46566;52.700;6.192;2022-11-20T03:56:35;-1.70;99.90
60717;DHT22;46566;52.700;6.192;2022-11-20T03:59:01;-1.80;99.90
60717;DHT22;46566;52.700;6.192;2022-11-20T04:01:32;-1.80;99.90
60717;DHT22;46566;52.700;6.192;2022-11-20T04:03:58;-1.80;99.90
60717;DHT22;46566;52.700;6.192;2022-11-20T04:06:27;-1.90;99.90
60717;DHT22;46566;52.700;6.192;2022-11-20T04:08:57;-1.80;99.90
60717;DHT22;46566;52.700;6.192;2022-11-20T04:11:24;-1.80;99.90
60717;DHT22;46566;52.700;6.192;2022-11-20T04:13:55;-1.80;99.90
60717;DHT22;46566;52.700;6.192;2022-11-20T04:16:23;-1.80;99.90
60717;DHT22;46566;52.700;6.192;2022-11-20T04:18:54;-1.80;99.90
60717;DHT22;46566;52.700;6.192;2022-11-20T04:21:21;-1.70;99.90
60717;DHT22;46566;52.700;6.192;2022-11-20T04:23:48;-1.70;99.90
60717;DHT22;46566;52.700;6.192;2022-11-20T04:26:14;-1.70;99.90
60717;DHT22;46566;52.700;6.192;2022-11-20T04:28:40;-1.70;99.90
60717;DHT22;46566;52.700;6.192;2022-11-20T04:31:12;-1.70;99.90
60717;DHT22;46566;52.700;6.192;2022-11-20T04:33:38;-1.70;99.90
60717;DHT22;46566;52.700;6.192;2022-11-20T04:36:16;-1.70;99.90
60717;DHT22;46566;52.700;6.192;2022-11-20T04:38:42;-1.70;99.90
60717;DHT22;46566;52.700;6.192;2022-11-20T04:41:11;-1.70;99.90
60717;DHT22;46566;52.700;6.192;2022-11-20T04:43:37;-1.80;99.90
60717;DHT22;46566;52.700;6.192;2022-11-20T04:46:03;-1.90;99.90
60717;DHT22;46566;52.700;6.192;2022-11-20T04:48:29;-1.90;99.90
60717;DHT22;46566;52.700;6.192;2022-11-20T04:50:55;-1.90;99.90
60717;DHT22;46566;52.700;6.192;2022-11-20T04:53:22;-1.90;99.90
60717;DHT22;46566;52.700;6.192;2022-11-20T04:55:48;-2.00;99.90
60717;DHT22;46566;52.700;6.192;2022-11-20T04:58:14;-2.00;99.90
60717;DHT22;46566;52.700;6.192;2022-11-20T05:00:40;-2.00;99.90
60717;DHT22;46566;52.700;6.192;2022-11-20T05:03:06;-2.00;99.90
60717;DHT22;46566;52.700;6.192;2022-11-20T05:05:34;-2.10;99.90
60717;DHT22;46566;52.700;6.192;2022-11-20T05:07:59;-2.10;99.90
60717;DHT22;46566;52.700;6.192;2022-11-20T05:10:27;-2.20;99.90
60717;DHT22;46566;52.700;6.192;2022-11-20T05:12:53;-2.30;99.90
60717;DHT22;46566;52.700;6.192;2022-11-20T05:15:19;-2.20;99.90
60717;DHT22;46566;52.700;6.192;2022-11-20T05:17:48;-2.20;99.90
60717;DHT22;46566;52.700;6.192;2022-11-20T05:20:14;-2.10;99.90
60717;DHT22;46566;52.700;6.192;2022-11-20T05:22:40;-2.00;99.90
60717;DHT22;46566;52.700;6.192;2022-11-20T05:25:06;-2.00;99.90
60717;DHT22;46566;52.700;6.192;2022-11-20T05:27:32;-2.00;99.90
60717;DHT22;46566;52.700;6.192;2022-11-20T05:29:57;-2.00;99.90
60717;DHT22;46566;52.700;6.192;2022-11-20T05:32:23;-1.90;99.90
60717;DHT22;46566;52.700;6.192;2022-11-20T05:34:51;-1.90;99.90
60717;DHT22;46566;52.700;6.192;2022-11-20T05:37:17;-1.90;99.90
60717;DHT22;46566;52.700;6.192;2022-11-20T05:39:43;-1.90;99.90
60717;DHT22;46566;52.700;6.192;2022-11-20T05:42:08;-1.90;99.90
60717;DHT22;46566;52.700;6.192;2022-11-20T05:44:52;-2.00;99.90
60717;DHT22;46566;52.700;6.192;2022-11-20T05:47:18;-2.10;99.90
60717;DHT22;46566;52.700;6.192;2022-11-20T05:49:44;-2.10;99.90
60717;DHT22;46566;52.700;6.192;2022-11-20T05:52:09;-2.10;99.90
60717;DHT22;46566;52.700;6.192;2022-11-20T05:54:35;-2.00;99.90
60717;DHT22;46566;52.700;6.192;2022-11-20T05:57:01;-2.10;99.90
60717;DHT22;46566;52.700;6.192;2022-11-20T05:59:26;-2.10;99.90
60717;DHT22;46566;52.700;6.192;2022-11-20T06:01:52;-2.10;99.90
60717;DHT22;46566;52.700;6.192;2022-11-20T06:04:18;-2.10;99.90
60717;DHT22;46566;52.700;6.192;2022-11-20T06:06:43;-2.10;99.90
60717;DHT22;46566;52.700;6.192;2022-11-20T06:09:09;-2.20;99.90
60717;DHT22;46566;52.700;6.192;2022-11-20T06:11:35;-2.30;99.90
60717;DHT22;46566;52.700;6.192;2022-11-20T06:14:00;-2.30;99.90
60717;DHT22;46566;52.700;6.192;2022-11-20T06:16:26;-2.40;99.90
60717;DHT22;46566;52.700;6.192;2022-11-20T06:18:52;-2.40;99.90
60717;DHT22;46566;52.700;6.192;2022-11-20T06:21:20;-2.40;99.90
60717;DHT22;46566;52.700;6.192;2022-11-20T06:23:46;-2.50;99.90
60717;DHT22;46566;52.700;6.192;2022-11-20T06:26:15;-2.50;99.90
60717;DHT22;46566;52.700;6.192;2022-11-20T06:28:41;-2.50;99.90
60717;DHT22;46566;52.700;6.192;2022-11-20T06:31:09;-2.60;99.90
60717;DHT22;46566;52.700;6.192;2022-11-20T06:33:35;-2.60;99.90
60717;DHT22;46566;52.700;6.192;2022-11-20T06:36:02;-2.70;99.90
60717;DHT22;46566;52.700;6.192;2022-11-20T06:38:28;-2.70;99.90
60717;DHT22;46566;52.700;6.192;2022-11-20T06:40:54;-2.70;99.90
60717;DHT22;46566;52.700;6.192;2022-11-20T06:43:21;-2.70;99.90
60717;DHT22;46566;52.700;6.192;2022-11-20T06:45:52;-2.70;99.90
60717;DHT22;46566;52.700;6.192;2022-11-20T06:48:23;-2.70;99.90
60717;DHT22;46566;52.700;6.192;2022-11-20T06:50:49;-2.80;99.90
60717;DHT22;46566;52.700;6.192;2022-11-20T06:53:15;-2.70;99.90
60717;DHT22;46566;52.700;6.192;2022-11-20T06:55:45;-2.70;99.90
60717;DHT22;46566;52.700;6.192;2022-11-20T06:58:12;-2.60;99.90
60717;DHT22;46566;52.700;6.192;2022-11-20T07:00:38;-2.50;99.90
60717;DHT22;46566;52.700;6.192;2022-11-20T07:03:04;-2.50;99.90
60717;DHT22;46566;52.700;6.192;2022-11-20T07:05:30;-2.40;99.90
60717;DHT22;46566;52.700;6.192;2022-11-20T07:07:56;-2.40;99.90
60717;DHT22;46566;52.700;6.192;2022-11-20T07:10:23;-2.40;99.90
60717;DHT22;46566;52.700;6.192;2022-11-20T07:12:50;-2.40;99.90
60717;DHT22;46566;52.700;6.192;2022-11-20T07:15:17;-2.30;99.90
60717;DHT22;46566;52.700;6.192;2022-11-20T07:17:43;-2.30;99.90
60717;DHT22;46566;52.700;6.192;2022-11-20T07:20:09;-2.20;99.90
60717;DHT22;46566;52.700;6.192;2022-11-20T07:22:34;-2.20;99.90
60717;DHT22;46566;52.700;6.192;2022-11-20T07:25:00;-2.10;99.90
60717;DHT22;46566;52.700;6.192;2022-11-20T07:27:27;-2.10;99.90
60717;DHT22;46566;52.700;6.192;2022-11-20T07:29:53;-2.10;99.90
60717;DHT22;46566;52.700;6.192;2022-11-20T07:32:19;-2.00;99.90
60717;DHT22;46566;52.700;6.192;2022-11-20T07:34:44;-2.00;99.90
60717;DHT22;46566;52.700;6.192;2022-11-20T07:37:10;-1.90;99.90
60717;DHT22;46566;52.700;6.192;2022-11-20T07:39:36;-1.90;99.90
60717;DHT22;46566;52.700;6.192;2022-11-20T07:42:01;-1.80;99.90
60717;DHT22;46566;52.700;6.192;2022-11-20T07:44:27;-1.70;99.90
60717;DHT22;46566;52.700;6.192;2022-11-20T07:49:53;-1.70;99.90
60717;DHT22;46566;52.700;6.192;2022-11-20T07:52:18;-1.60;99.90
60717;DHT22;46566;52.700;6.192;2022-11-20T07:57:30;-1.50;99.90
60717;DHT22;46566;52.700;6.192;2022-11-20T07:59:56;-1.50;99.90
60717;DHT22;46566;52.700;6.192;2022-11-20T08:02:22;-1.40;99.90
60717;DHT22;46566;52.700;6.192;2022-11-20T08:07:41;0.80;99.90
60717;DHT22;46566;52.700;6.192;2022-11-20T08:10:09;1.20;99.90
60717;DHT22;46566;52.700;6.192;2022-11-20T08:12:35;2.00;99.90
60717;DHT22;46566;52.700;6.192;2022-11-20T08:15:35;2.20;99.90
60717;DHT22;46566;52.700;6.192;2022-11-20T08:18:09;1.80;99.90
60717;DHT22;46566;52.700;6.192;2022-11-20T08:26:04;0.30;99.90
60717;DHT22;46566;52.700;6.192;2022-11-20T08:31:41;-0.10;99.90
60717;DHT22;46566;52.700;6.192;2022-11-20T08:37:03;-0.40;99.90
60717;DHT22;46566;52.700;6.192;2022-11-20T08:39:29;-0.50;99.90
60717;DHT22;46566;52.700;6.192;2022-11-20T08:41:54;-0.60;99.90
60717;DHT22;46566;52.700;6.192;2022-11-20T08:47:31;-0.70;99.90
60717;DHT22;46566;52.700;6.192;2022-11-20T08:53:04;-0.20;99.90
60717;DHT22;46566;52.700;6.192;2022-11-20T08:58:26;0.60;99.90
60717;DHT22;46566;52.700;6.192;2022-11-20T09:00:52;0.60;99.90
60717;DHT22;46566;52.700;6.192;2022-11-20T09:03:18;0.60;99.90
60717;DHT22;46566;52.700;6.192;2022-11-20T09:08:52;0.40;99.90
60717;DHT22;46566;52.700;6.192;2022-11-20T09:11:44;0.30;99.90
60717;DHT22;46566;52.700;6.192;2022-11-20T09:14:10;0.10;99.90
60717;DHT22;46566;52.700;6.192;2022-11-20T09:16:36;0.10;99.90
60717;DHT22;46566;52.700;6.192;2022-11-20T09:19:01;0.10;99.90
60717;DHT22;46566;52.700;6.192;2022-11-20T09:24:29;0.10;99.90
60717;DHT22;46566;52.700;6.192;2022-11-20T09:26:55;0.30;99.90
60717;DHT22;46566;52.700;6.192;2022-11-20T09:32:08;0.60;99.90
60717;DHT22;46566;52.700;6.192;2022-11-20T09:34:34;0.80;99.90
60717;DHT22;46566;52.700;6.192;2022-11-20T09:37:00;1.00;99.90
60717;DHT22;46566;52.700;6.192;2022-11-20T09:51:41;2.40;99.90
60717;DHT22;46566;52.700;6.192;2022-11-20T09:57:23;3.20;99.90
60717;DHT22;46566;52.700;6.192;2022-11-20T10:00:36;3.60;99.90
60717;DHT22;46566;52.700;6.192;2022-11-20T10:03:39;4.00;99.90
60717;DHT22;46566;52.700;6.192;2022-11-20T10:06:12;4.10;99.90
60717;DHT22;46566;52.700;6.192;2022-11-20T10:12:03;4.10;99.90
60717;DHT22;46566;52.700;6.192;2022-11-20T10:15:27;3.90;99.90
60717;DHT22;46566;52.700;6.192;2022-11-20T10:18:37;3.50;99.90
60717;DHT22;46566;52.700;6.192;2022-11-20T10:27:42;3.10;99.90
60717;DHT22;46566;52.700;6.192;2022-11-20T10:30:38;3.00;99.90
60717;DHT22;46566;52.700;6.192;2022-11-20T10:33:17;3.10;99.90
60717;DHT22;46566;52.700;6.192;2022-11-20T10:38:48;3.50;99.90
60717;DHT22;46566;52.700;6.192;2022-11-20T10:44:27;3.50;99.90
60717;DHT22;46566;52.700;6.192;2022-11-20T10:53:37;3.10;99.90
60717;DHT22;46566;52.700;6.192;2022-11-20T11:04:56;2.70;99.90
60717;DHT22;46566;52.700;6.192;2022-11-20T11:10:21;2.50;99.90
60717;DHT22;46566;52.700;6.192;2022-11-20T11:12:48;2.60;99.90
60717;DHT22;46566;52.700;6.192;2022-11-20T11:18:30;2.60;99.90
60717;DHT22;46566;52.700;6.192;2022-11-20T11:21:27;2.60;99.90
60717;DHT22;46566;52.700;6.192;2022-11-20T11:24:01;2.60;99.90
60717;DHT22;46566;52.700;6.192;2022-11-20T11:29:23;2.70;99.90
60717;DHT22;46566;52.700;6.192;2022-11-20T11:32:20;2.80;99.90
60717;DHT22;46566;52.700;6.192;2022-11-20T11:35:04;2.90;99.90
60717;DHT22;46566;52.700;6.192;2022-11-20T11:37:34;3.10;99.90
60717;DHT22;46566;52.700;6.192;2022-11-20T11:40:14;3.20;99.90
60717;DHT22;46566;52.700;6.192;2022-11-20T11:42:50;3.50;99.90
60717;DHT22;46566;52.700;6.192;2022-11-20T11:45:17;3.80;99.90
60717;DHT22;46566;52.700;6.192;2022-11-20T11:53:13;4.30;99.90
60717;DHT22;46566;52.700;6.192;2022-11-20T11:58:48;3.80;99.90
60717;DHT22;46566;52.700;6.192;2022-11-20T12:10:00;3.10;99.90
60717;DHT22;46566;52.700;6.192;2022-11-20T12:15:34;3.00;99.90
60717;DHT22;46566;52.700;6.192;2022-11-20T12:18:00;3.00;99.90
60717;DHT22;46566;52.700;6.192;2022-11-20T12:30:14;2.80;99.90
60717;DHT22;46566;52.700;6.192;2022-11-20T12:42:27;2.70;99.90
60717;DHT22;46566;52.700;6.192;2022-11-20T12:48:28;2.70;99.90
60717;DHT22;46566;52.700;6.192;2022-11-20T13:12:09;2.80;99.90
60717;DHT22;46566;52.700;6.192;2022-11-20T13:17:39;2.90;99.90
60717;DHT22;46566;52.700;6.192;2022-11-20T13:23:27;2.90;99.90
60717;DHT22;46566;52.700;6.192;2022-11-20T13:29:11;2.90;99.90
60717;DHT22;46566;52.700;6.192;2022-11-20T13:32:17;2.80;99.90
60717;DHT22;46566;52.700;6.192;2022-11-20T13:37:41;2.80;99.90
60717;DHT22;46566;52.700;6.192;2022-11-20T13:42:39;2.90;99.90
60717;DHT22;46566;52.700;6.192;2022-11-20T13:45:33;2.90;99.90
60717;DHT22;46566;52.700;6.192;2022-11-20T13:48:16;2.90;99.90
60717;DHT22;46566;52.700;6.192;2022-11-20T13:51:40;2.80;99.90
60717;DHT22;46566;52.700;6.192;2022-11-20T14:00:19;2.80;99.90
60717;DHT22;46566;52.700;6.192;2022-11-20T14:05:58;2.70;99.90
60717;DHT22;46566;52.700;6.192;2022-11-20T14:11:55;2.70;99.90
60717;DHT22;46566;52.700;6.192;2022-11-20T14:17:32;2.70;99.90
60717;DHT22;46566;52.700;6.192;2022-11-20T14:22:51;2.70;99.90
60717;DHT22;46566;52.700;6.192;2022-11-20T14:25:18;2.70;99.90
60717;DHT22;46566;52.700;6.192;2022-11-20T14:30:47;2.70;99.90
60717;DHT22;46566;52.700;6.192;2022-11-20T14:33:14;2.70;99.90
60717;DHT22;46566;52.700;6.192;2022-11-20T14:38:36;2.70;99.90
60717;DHT22;46566;52.700;6.192;2022-11-20T14:41:09;2.70;99.90
60717;DHT22;46566;52.700;6.192;2022-11-20T14:49:55;2.70;99.90
60717;DHT22;46566;52.700;6.192;2022-11-20T14:52:23;2.70;99.90
60717;DHT22;46566;52.700;6.192;2022-11-20T14:57:55;2.60;99.90
60717;DHT22;46566;52.700;6.192;2022-11-20T15:00:22;2.60;99.90
60717;DHT22;46566;52.700;6.192;2022-11-20T15:08:51;2.60;99.90
60717;DHT22;46566;52.700;6.192;2022-11-20T15:11:27;2.60;99.90
60717;DHT22;46566;52.700;6.192;2022-11-20T15:13:54;2.60;99.90
60717;DHT22;46566;52.700;6.192;2022-11-20T15:19:32;2.60;99.90
60717;DHT22;46566;52.700;6.192;2022-11-20T15:22:30;2.60;99.90
60717;DHT22;46566;52.700;6.192;2022-11-20T15:24:55;2.60;99.90
60717;DHT22;46566;52.700;6.192;2022-11-20T15:30:24;2.50;99.90
60717;DHT22;46566;52.700;6.192;2022-11-20T15:32:49;2.50;99.90
60717;DHT22;46566;52.700;6.192;2022-11-20T15:35:15;2.50;99.90
60717;DHT22;46566;52.700;6.192;2022-11-20T15:37:41;2.50;99.90
60717;DHT22;46566;52.700;6.192;2022-11-20T15:40:08;2.50;99.90
60717;DHT22;46566;52.700;6.192;2022-11-20T15:42:34;2.50;99.90
60717;DHT22;46566;52.700;6.192;2022-11-20T15:45:00;2.50;99.90
60717;DHT22;46566;52.700;6.192;2022-11-20T15:47:28;2.50;99.90
60717;DHT22;46566;52.700;6.192;2022-11-20T15:49:54;2.50;99.90
60717;DHT22;46566;52.700;6.192;2022-11-20T15:52:20;2.50;99.90
60717;DHT22;46566;52.700;6.192;2022-11-20T15:54:46;2.50;99.90
60717;DHT22;46566;52.700;6.192;2022-11-20T15:57:12;2.50;99.90
60717;DHT22;46566;52.700;6.192;2022-11-20T15:59:38;2.50;99.90
60717;DHT22;46566;52.700;6.192;2022-11-20T16:02:14;2.50;99.90
60717;DHT22;46566;52.700;6.192;2022-11-20T16:04:40;2.50;99.90
60717;DHT22;46566;52.700;6.192;2022-11-20T16:07:05;2.50;99.90
60717;DHT22;46566;52.700;6.192;2022-11-20T16:09:31;2.50;99.90
60717;DHT22;46566;52.700;6.192;2022-11-20T16:11:58;2.50;99.90
60717;DHT22;46566;52.700;6.192;2022-11-20T16:14:25;2.50;99.90
60717;DHT22;46566;52.700;6.192;2022-11-20T16:17:10;2.50;99.90
60717;DHT22;46566;52.700;6.192;2022-11-20T16:19:35;2.50;99.90
60717;DHT22;46566;52.700;6.192;2022-11-20T16:22:01;2.50;99.90
60717;DHT22;46566;52.700;6.192;2022-11-20T16:24:27;2.50;99.90
60717;DHT22;46566;52.700;6.192;2022-11-20T16:26:54;2.50;99.90
60717;DHT22;46566;52.700;6.192;2022-11-20T16:29:19;2.50;99.90
60717;DHT22;46566;52.700;6.192;2022-11-20T16:31:45;2.50;99.90
60717;DHT22;46566;52.700;6.192;2022-11-20T16:34:12;2.50;99.90
60717;DHT22;46566;52.700;6.192;2022-11-20T16:36:42;2.50;99.90
60717;DHT22;46566;52.700;6.192;2022-11-20T16:39:09;2.50;99.90
60717;DHT22;46566;52.700;6.192;2022-11-20T16:41:35;2.50;99.90
60717;DHT22;46566;52.700;6.192;2022-11-20T16:44:05;2.50;99.90
60717;DHT22;46566;52.700;6.192;2022-11-20T16:46:32;2.50;99.90
60717;DHT22;46566;52.700;6.192;2022-11-20T16:49:00;2.60;99.90
60717;DHT22;46566;52.700;6.192;2022-11-20T16:51:27;2.50;99.90
60717;DHT22;46566;52.700;6.192;2022-11-20T16:53:53;2.60;99.90
60717;DHT22;46566;52.700;6.192;2022-11-20T16:56:22;2.60;99.90
60717;DHT22;46566;52.700;6.192;2022-11-20T16:58:49;2.60;99.90
60717;DHT22;46566;52.700;6.192;2022-11-20T17:01:19;2.60;99.90
60717;DHT22;46566;52.700;6.192;2022-11-20T17:03:52;2.60;99.90
60717;DHT22;46566;52.700;6.192;2022-11-20T17:06:19;2.50;99.90
60717;DHT22;46566;52.700;6.192;2022-11-20T17:08:46;2.50;99.90
60717;DHT22;46566;52.700;6.192;2022-11-20T17:11:14;2.50;99.90
60717;DHT22;46566;52.700;6.192;2022-11-20T17:13:41;2.50;99.90
60717;DHT22;46566;52.700;6.192;2022-11-20T17:16:10;2.50;99.90
60717;DHT22;46566;52.700;6.192;2022-11-20T17:18:37;2.40;99.90
60717;DHT22;46566;52.700;6.192;2022-11-20T17:21:03;2.50;99.90
60717;DHT22;46566;52.700;6.192;2022-11-20T17:23:33;2.40;99.90
60717;DHT22;46566;52.700;6.192;2022-11-20T17:26:01;2.40;99.90
60717;DHT22;46566;52.700;6.192;2022-11-20T17:28:28;2.40;99.90
60717;DHT22;46566;52.700;6.192;2022-11-20T17:30:58;2.30;99.90
60717;DHT22;46566;52.700;6.192;2022-11-20T17:33:24;2.30;99.90
60717;DHT22;46566;52.700;6.192;2022-11-20T17:35:50;2.20;99.90
60717;DHT22;46566;52.700;6.192;2022-11-20T17:38:15;2.20;99.90
60717;DHT22;46566;52.700;6.192;2022-11-20T17:40:41;2.10;99.90
60717;DHT22;46566;52.700;6.192;2022-11-20T17:43:06;2.10;99.90
60717;DHT22;46566;52.700;6.192;2022-11-20T17:45:34;2.10;99.90
60717;DHT22;46566;52.700;6.192;2022-11-20T17:48:00;2.00;99.90
60717;DHT22;46566;52.700;6.192;2022-11-20T17:50:26;2.00;99.90
60717;DHT22;46566;52.700;6.192;2022-11-20T17:52:51;2.00;99.90
60717;DHT22;46566;52.700;6.192;2022-11-20T17:55:17;2.00;99.90
60717;DHT22;46566;52.700;6.192;2022-11-20T17:57:43;2.00;99.90
60717;DHT22;46566;52.700;6.192;2022-11-20T18:00:19;2.00;99.90
60717;DHT22;46566;52.700;6.192;2022-11-20T18:02:44;2.00;99.90
60717;DHT22;46566;52.700;6.192;2022-11-20T18:05:10;2.00;99.90
60717;DHT22;46566;52.700;6.192;2022-11-20T18:07:36;1.90;99.90
60717;DHT22;46566;52.700;6.192;2022-11-20T18:10:04;1.90;99.90
60717;DHT22;46566;52.700;6.192;2022-11-20T18:12:30;1.80;99.90
60717;DHT22;46566;52.700;6.192;2022-11-20T18:14:56;1.80;99.90
60717;DHT22;46566;52.700;6.192;2022-11-20T18:17:21;1.70;99.90
60717;DHT22;46566;52.700;6.192;2022-11-20T18:19:47;1.70;99.90
60717;DHT22;46566;52.700;6.192;2022-11-20T18:22:16;1.70;99.90
60717;DHT22;46566;52.700;6.192;2022-11-20T18:24:42;1.60;99.90
60717;DHT22;46566;52.700;6.192;2022-11-20T18:27:14;1.60;99.90
60717;DHT22;46566;52.700;6.192;2022-11-20T18:29:39;1.60;99.90
60717;DHT22;46566;52.700;6.192;2022-11-20T18:32:05;1.60;99.90
60717;DHT22;46566;52.700;6.192;2022-11-20T18:34:31;1.60;99.90
60717;DHT22;46566;52.700;6.192;2022-11-20T18:36:57;1.60;99.90
60717;DHT22;46566;52.700;6.192;2022-11-20T18:39:22;1.50;99.90
60717;DHT22;46566;52.700;6.192;2022-11-20T18:41:48;1.50;99.90
60717;DHT22;46566;52.700;6.192;2022-11-20T18:44:33;1.60;99.90
60717;DHT22;46566;52.700;6.192;2022-11-20T18:47:26;1.50;99.90
60717;DHT22;46566;52.700;6.192;2022-11-20T18:49:54;1.60;99.90
60717;DHT22;46566;52.700;6.192;2022-11-20T18:54:48;1.50;99.90
60717;DHT22;46566;52.700;6.192;2022-11-20T18:57:22;1.50;99.90
60717;DHT22;46566;52.700;6.192;2022-11-20T18:59:48;1.50;99.90
60717;DHT22;46566;52.700;6.192;2022-11-20T19:02:16;1.50;99.90
60717;DHT22;46566;52.700;6.192;2022-11-20T19:04:42;1.50;99.90
60717;DHT22;46566;52.700;6.192;2022-11-20T19:07:08;1.50;99.90
60717;DHT22;46566;52.700;6.192;2022-11-20T19:09:37;1.50;99.90
60717;DHT22;46566;52.700;6.192;2022-11-20T19:12:04;1.50;99.90
60717;DHT22;46566;52.700;6.192;2022-11-20T19:14:29;1.40;99.90
60717;DHT22;46566;52.700;6.192;2022-11-20T19:16:55;1.40;99.90
60717;DHT22;46566;52.700;6.192;2022-11-20T19:19:21;1.40;99.90
60717;DHT22;46566;52.700;6.192;2022-11-20T19:21:46;1.40;99.90
60717;DHT22;46566;52.700;6.192;2022-11-20T19:24:12;1.50;99.90
60717;DHT22;46566;52.700;6.192;2022-11-20T19:26:38;1.50;99.90
60717;DHT22;46566;52.700;6.192;2022-11-20T19:29:04;1.40;99.90
60717;DHT22;46566;52.700;6.192;2022-11-20T19:31:30;1.50;99.90
60717;DHT22;46566;52.700;6.192;2022-11-20T19:34:02;1.50;99.90
60717;DHT22;46566;52.700;6.192;2022-11-20T19:36:33;1.50;99.90
60717;DHT22;46566;52.700;6.192;2022-11-20T19:38:59;1.50;99.90